sensor_id;sensor_type;location;lat;lon;timestamp;pressure;altitude;pressure_sealevel;temperature;humidity
28665;BME280;15850;47.524;7.814;2022-08-02T00:01:32;97933.75;;;19.63;95.65
28665;BME280;15850;47.524;7.814;2022-08-02T00:03:58;97951.84;;;19.54;97.48
28665;BME280;15850;47.524;7.814;2022-08-02T00:06:24;97949.88;;;19.47;97.33
28665;BME280;15850;47.524;7.814;2022-08-02T00:08:49;97953.41;;;19.44;98.08
28665;BME280;15850;47.524;7.814;2022-08-02T00:11:15;97986.94;;;19.57;99.38
28665;BME280;15850;47.524;7.814;2022-08-02T00:13:40;97984.56;;;19.52;100.00
28665;BME280;15850;47.524;7.814;2022-08-02T00:16:08;97990.44;;;19.43;100.00
28665;BME280;15850;47.524;7.814;2022-08-02T00:18:34;97846.59;;;18.46;100.00
28665;BME280;15850;47.524;7.814;2022-08-02T00:20:59;97922.06;;;19.00;100.00
28665;BME280;15850;47.524;7.814;2022-08-02T00:23:25;97981.31;;;19.24;100.00
28665;BME280;15850;47.524;7.814;2022-08-02T00:25:50;97997.41;;;19.12;100.00
28665;BME280;15850;47.524;7.814;2022-08-02T00:28:16;97727.56;;;17.50;100.00
28665;BME280;15850;47.524;7.814;2022-08-02T00:30:41;97974.91;;;19.06;100.00
28665;BME280;15850;47.524;7.814;2022-08-02T00:33:09;97985.19;;;19.13;100.00
28665;BME280;15850;47.524;7.814;2022-08-02T00:35:34;97800.19;;;17.86;100.00
28665;BME280;15850;47.524;7.814;2022-08-02T00:38:00;97781.13;;;17.63;100.00
28665;BME280;15850;47.524;7.814;2022-08-02T00:40:26;98003.50;;;18.84;100.00
28665;BME280;15850;47.524;7.814;2022-08-02T00:43:08;97986.66;;;18.92;100.00
28665;BME280;15850;47.524;7.814;2022-08-02T00:45:36;97987.84;;;18.91;100.00
28665;BME280;15850;47.524;7.814;2022-08-02T00:48:03;97939.88;;;18.44;100.00
28665;BME280;15850;47.524;7.814;2022-08-02T00:50:31;97880.34;;;17.81;100.00
28665;BME280;15850;47.524;7.814;2022-08-02T00:52:57;97980.38;;;18.44;100.00
28665;BME280;15850;47.524;7.814;2022-08-02T00:55:22;97978.78;;;18.43;100.00
28665;BME280;15850;47.524;7.814;2022-08-02T00:57:48;97683.56;;;16.61;100.00
28665;BME280;15850;47.524;7.814;2022-08-02T01:00:15;97980.81;;;18.49;100.00
28665;BME280;15850;47.524;7.814;2022-08-02T01:02:40;97974.50;;;18.45;100.00
28665;BME280;15850;47.524;7.814;2022-08-02T01:05:07;97855.06;;;17.68;100.00
28665;BME280;15850;47.524;7.814;2022-08-02T01:07:34;97976.78;;;18.36;100.00
28665;BME280;15850;47.524;7.814;2022-08-02T01:09:59;97834.47;;;17.51;100.00
28665;BME280;15850;47.524;7.814;2022-08-02T01:12:25;97902.09;;;17.97;100.00
28665;BME280;15850;47.524;7.814;2022-08-02T01:14:52;97966.53;;;18.37;100.00
28665;BME280;15850;47.524;7.814;2022-08-02T01:17:22;97970.41;;;18.25;100.00
28665;BME280;15850;47.524;7.814;2022-08-02T01:19:54;97973.53;;;18.23;100.00
28665;BME280;15850;47.524;7.814;2022-08-02T01:25:27;97829.91;;;17.25;100.00
28665;BME280;15850;47.524;7.814;2022-08-02T01:28:26;97970.69;;;18.13;100.00
28665;BME280;15850;47.524;7.814;2022-08-02T01:30:55;97916.00;;;17.70;100.00
28665;BME280;15850;47.524;7.814;2022-08-02T01:33:25;97969.38;;;17.99;100.00
28665;BME280;15850;47.524;7.814;2022-08-02T01:35:55;97923.44;;;17.66;100.00
28665;BME280;15850;47.524;7.814;2022-08-02T01:38:28;97976.03;;;17.95;100.00
28665;BME280;15850;47.524;7.814;2022-08-02T01:40:56;97959.47;;;17.91;100.00
28665;BME280;15850;47.524;7.814;2022-08-02T01:43:24;97969.31;;;17.92;100.00
28665;BME280;15850;47.524;7.814;2022-08-02T01:45:53;97780.47;;;16.61;100.00
28665;BME280;15850;47.524;7.814;2022-08-02T01:48:20;97953.91;;;17.84;100.00
28665;BME280;15850;47.524;7.814;2022-08-02T01:50:48;97752.56;;;16.56;100.00
28665;BME280;15850;47.524;7.814;2022-08-02T01:53:20;97820.25;;;17.05;100.00
28665;BME280;15850;47.524;7.814;2022-08-02T01:55:49;97759.59;;;16.53;100.00
28665;BME280;15850;47.524;7.814;2022-08-02T01:58:17;97877.53;;;17.36;100.00
28665;BME280;15850;47.524;7.814;2022-08-02T02:00:45;97905.91;;;17.44;100.00
28665;BME280;15850;47.524;7.814;2022-08-02T02:03:14;97965.03;;;17.61;100.00
28665;BME280;15850;47.524;7.814;2022-08-02T02:05:45;97777.53;;;16.43;100.00
28665;BME280;15850;47.524;7.814;2022-08-02T02:08:12;97958.00;;;17.67;100.00
28665;BME280;15850;47.524;7.814;2022-08-02T02:10:39;97929.97;;;17.54;100.00
28665;BME280;15850;47.524;7.814;2022-08-02T02:13:08;97951.69;;;17.63;100.00
28665;BME280;15850;47.524;7.814;2022-08-02T02:15:39;97966.16;;;17.56;100.00
28665;BME280;15850;47.524;7.814;2022-08-02T02:18:08;97961.47;;;17.60;100.00
28665;BME280;15850;47.524;7.814;2022-08-02T02:20:35;97960.28;;;17.58;100.00
28665;BME280;15850;47.524;7.814;2022-08-02T02:23:01;97956.41;;;17.63;100.00
28665;BME280;15850;47.524;7.814;2022-08-02T02:25:27;97953.97;;;17.57;100.00
28665;BME280;15850;47.524;7.814;2022-08-02T02:28:00;97963.00;;;17.54;100.00
28665;BME280;15850;47.524;7.814;2022-08-02T02:30:28;97902.09;;;17.19;100.00
28665;BME280;15850;47.524;7.814;2022-08-02T02:32:58;97949.16;;;17.47;100.00
28665;BME280;15850;47.524;7.814;2022-08-02T02:35:28;97854.88;;;16.76;100.00
28665;BME280;15850;47.524;7.814;2022-08-02T02:37:55;97926.94;;;17.26;100.00
28665;BME280;15850;47.524;7.814;2022-08-02T02:40:23;97754.22;;;16.30;100.00
28665;BME280;15850;47.524;7.814;2022-08-02T02:42:50;97897.75;;;17.18;100.00
28665;BME280;15850;47.524;7.814;2022-08-02T02:45:17;97887.44;;;17.07;100.00
28665;BME280;15850;47.524;7.814;2022-08-02T02:47:45;97916.63;;;17.19;100.00
28665;BME280;15850;47.524;7.814;2022-08-02T02:50:11;97934.50;;;17.36;100.00
28665;BME280;15850;47.524;7.814;2022-08-02T02:52:39;97937.66;;;17.38;100.00
28665;BME280;15850;47.524;7.814;2022-08-02T02:55:07;97934.47;;;17.32;100.00
28665;BME280;15850;47.524;7.814;2022-08-02T02:57:33;97869.91;;;16.85;100.00
28665;BME280;15850;47.524;7.814;2022-08-02T03:00:00;97858.28;;;16.69;100.00
28665;BME280;15850;47.524;7.814;2022-08-02T03:02:26;97932.19;;;17.08;100.00
28665;BME280;15850;47.524;7.814;2022-08-02T03:04:54;97936.13;;;17.07;100.00
28665;BME280;15850;47.524;7.814;2022-08-02T03:07:20;97861.53;;;16.48;100.00
28665;BME280;15850;47.524;7.814;2022-08-02T03:09:47;97825.31;;;16.39;100.00
28665;BME280;15850;47.524;7.814;2022-08-02T03:12:13;97871.41;;;16.53;100.00
28665;BME280;15850;47.524;7.814;2022-08-02T03:14:40;97837.72;;;16.56;100.00
28665;BME280;15850;47.524;7.814;2022-08-02T03:17:09;97934.78;;;17.27;100.00
28665;BME280;15850;47.524;7.814;2022-08-02T03:19:34;97931.00;;;17.39;100.00
28665;BME280;15850;47.524;7.814;2022-08-02T03:22:00;97636.75;;;15.52;100.00
28665;BME280;15850;47.524;7.814;2022-08-02T03:24:25;97918.28;;;17.27;100.00
28665;BME280;15850;47.524;7.814;2022-08-02T03:26:52;97931.69;;;17.29;100.00
28665;BME280;15850;47.524;7.814;2022-08-02T03:29:18;97175.06;;;12.29;100.00
28665;BME280;15850;47.524;7.814;2022-08-02T03:31:45;97880.00;;;16.78;100.00
28665;BME280;15850;47.524;7.814;2022-08-02T03:34:10;97894.53;;;16.78;100.00
28665;BME280;15850;47.524;7.814;2022-08-02T03:36:38;97826.69;;;16.26;100.00
28665;BME280;15850;47.524;7.814;2022-08-02T03:39:05;97916.25;;;16.87;100.00
28665;BME280;15850;47.524;7.814;2022-08-02T03:41:32;97769.66;;;15.85;100.00
28665;BME280;15850;47.524;7.814;2022-08-02T03:44:01;97859.88;;;16.40;100.00
28665;BME280;15850;47.524;7.814;2022-08-02T03:46:28;97851.94;;;16.35;100.00
28665;BME280;15850;47.524;7.814;2022-08-02T03:48:55;97921.25;;;16.81;100.00
28665;BME280;15850;47.524;7.814;2022-08-02T03:51:21;97535.59;;;14.38;100.00
28665;BME280;15850;47.524;7.814;2022-08-02T03:53:47;97629.25;;;14.96;100.00
28665;BME280;15850;47.524;7.814;2022-08-02T03:56:14;97927.88;;;16.77;100.00
28665;BME280;15850;47.524;7.814;2022-08-02T03:58:40;97749.06;;;15.68;100.00
28665;BME280;15850;47.524;7.814;2022-08-02T04:01:07;97848.44;;;16.38;100.00
28665;BME280;15850;47.524;7.814;2022-08-02T04:03:33;97873.41;;;16.56;100.00
28665;BME280;15850;47.524;7.814;2022-08-02T04:05:58;97889.28;;;16.70;100.00
28665;BME280;15850;47.524;7.814;2022-08-02T04:08:24;97882.50;;;16.60;100.00
28665;BME280;15850;47.524;7.814;2022-08-02T04:10:49;97925.66;;;16.86;100.00
28665;BME280;15850;47.524;7.814;2022-08-02T04:13:15;97861.81;;;16.39;100.00
28665;BME280;15850;47.524;7.814;2022-08-02T04:15:41;97928.59;;;16.74;100.00
28665;BME280;15850;47.524;7.814;2022-08-02T04:18:08;97944.28;;;16.73;100.00
28665;BME280;15850;47.524;7.814;2022-08-02T04:20:35;97921.88;;;16.71;100.00
28665;BME280;15850;47.524;7.814;2022-08-02T04:23:04;97933.00;;;16.78;100.00
28665;BME280;15850;47.524;7.814;2022-08-02T04:25:31;97875.03;;;16.60;100.00
28665;BME280;15850;47.524;7.814;2022-08-02T04:27:58;97927.56;;;17.12;100.00
28665;BME280;15850;47.524;7.814;2022-08-02T04:30:24;97815.84;;;16.33;100.00
28665;BME280;15850;47.524;7.814;2022-08-02T04:32:51;97921.72;;;16.87;100.00
28665;BME280;15850;47.524;7.814;2022-08-02T04:35:18;97670.22;;;15.12;100.00
28665;BME280;15850;47.524;7.814;2022-08-02T04:37:44;97916.25;;;16.87;100.00
28665;BME280;15850;47.524;7.814;2022-08-02T04:40:11;97906.03;;;16.87;100.00
28665;BME280;15850;47.524;7.814;2022-08-02T04:42:37;97937.28;;;17.40;100.00
28665;BME280;15850;47.524;7.814;2022-08-02T04:45:04;97657.53;;;15.54;100.00
28665;BME280;15850;47.524;7.814;2022-08-02T04:47:31;97939.59;;;17.34;100.00
28665;BME280;15850;47.524;7.814;2022-08-02T04:49:56;97945.88;;;17.34;100.00
28665;BME280;15850;47.524;7.814;2022-08-02T04:52:23;97885.78;;;16.99;100.00
28665;BME280;15850;47.524;7.814;2022-08-02T04:54:49;97887.53;;;17.18;100.00
28665;BME280;15850;47.524;7.814;2022-08-02T04:57:14;97930.47;;;17.64;100.00
28665;BME280;15850;47.524;7.814;2022-08-02T04:59:40;97959.88;;;17.93;100.00
28665;BME280;15850;47.524;7.814;2022-08-02T05:02:05;97869.81;;;17.49;100.00
28665;BME280;15850;47.524;7.814;2022-08-02T05:04:31;97778.47;;;16.88;100.00
28665;BME280;15850;47.524;7.814;2022-08-02T05:06:56;97886.84;;;17.62;100.00
28665;BME280;15850;47.524;7.814;2022-08-02T05:09:23;97845.38;;;17.41;100.00
28665;BME280;15850;47.524;7.814;2022-08-02T05:11:49;97562.56;;;15.68;100.00
28665;BME280;15850;47.524;7.814;2022-08-02T05:14:14;97959.88;;;18.38;100.00
28665;BME280;15850;47.524;7.814;2022-08-02T05:16:40;97664.06;;;16.73;100.00
28665;BME280;15850;47.524;7.814;2022-08-02T05:19:05;97680.09;;;16.67;100.00
28665;BME280;15850;47.524;7.814;2022-08-02T05:21:31;97967.53;;;18.66;100.00
28665;BME280;15850;47.524;7.814;2022-08-02T05:23:56;97966.78;;;18.69;100.00
28665;BME280;15850;47.524;7.814;2022-08-02T05:26:23;97977.34;;;18.60;100.00
28665;BME280;15850;47.524;7.814;2022-08-02T05:28:49;97823.00;;;17.87;100.00
28665;BME280;15850;47.524;7.814;2022-08-02T05:31:14;97962.97;;;18.84;100.00
28665;BME280;15850;47.524;7.814;2022-08-02T05:33:40;97778.81;;;17.69;100.00
28665;BME280;15850;47.524;7.814;2022-08-02T05:36:06;97918.72;;;18.66;100.00
28665;BME280;15850;47.524;7.814;2022-08-02T05:38:31;97961.50;;;19.05;100.00
28665;BME280;15850;47.524;7.814;2022-08-02T05:40:57;97835.03;;;18.23;100.00
28665;BME280;15850;47.524;7.814;2022-08-02T05:43:24;97839.75;;;18.19;100.00
28665;BME280;15850;47.524;7.814;2022-08-02T05:45:50;97959.22;;;19.21;100.00
28665;BME280;15850;47.524;7.814;2022-08-02T05:48:16;97960.81;;;19.22;100.00
28665;BME280;15850;47.524;7.814;2022-08-02T05:50:44;97866.09;;;18.78;100.00
28665;BME280;15850;47.524;7.814;2022-08-02T05:53:18;97832.09;;;18.64;100.00
28665;BME280;15850;47.524;7.814;2022-08-02T05:55:47;97960.94;;;19.58;100.00
28665;BME280;15850;47.524;7.814;2022-08-02T05:58:20;97668.38;;;17.74;100.00
28665;BME280;15850;47.524;7.814;2022-08-02T06:00:50;97965.31;;;19.66;100.00
28665;BME280;15850;47.524;7.814;2022-08-02T06:03:22;97693.28;;;17.88;100.00
28665;BME280;15850;47.524;7.814;2022-08-02T06:05:52;97962.97;;;19.75;100.00
28665;BME280;15850;47.524;7.814;2022-08-02T06:08:23;97637.66;;;17.61;100.00
28665;BME280;15850;47.524;7.814;2022-08-02T06:10:55;97588.72;;;17.19;100.00
28665;BME280;15850;47.524;7.814;2022-08-02T06:13:26;97837.41;;;18.97;100.00
28665;BME280;15850;47.524;7.814;2022-08-02T06:15:53;97869.78;;;19.25;100.00
28665;BME280;15850;47.524;7.814;2022-08-02T06:18:19;97955.53;;;20.15;100.00
28665;BME280;15850;47.524;7.814;2022-08-02T06:23:13;97837.91;;;19.42;100.00
28665;BME280;15850;47.524;7.814;2022-08-02T06:25:39;97846.59;;;19.55;100.00
28665;BME280;15850;47.524;7.814;2022-08-02T06:28:19;97952.34;;;20.45;100.00
28665;BME280;15850;47.524;7.814;2022-08-02T06:30:44;97945.25;;;20.48;100.00
28665;BME280;15850;47.524;7.814;2022-08-02T06:33:11;97947.63;;;20.67;100.00
28665;BME280;15850;47.524;7.814;2022-08-02T06:35:42;97946.03;;;20.80;100.00
28665;BME280;15850;47.524;7.814;2022-08-02T06:38:11;97864.72;;;20.46;100.00
28665;BME280;15850;47.524;7.814;2022-08-02T06:40:42;97952.72;;;20.94;100.00
28665;BME280;15850;47.524;7.814;2022-08-02T06:43:11;97958.94;;;21.16;100.00
28665;BME280;15850;47.524;7.814;2022-08-02T06:45:38;97947.56;;;20.96;100.00
28665;BME280;15850;47.524;7.814;2022-08-02T06:48:04;97956.22;;;21.08;100.00
28665;BME280;15850;47.524;7.814;2022-08-02T06:50:32;97970.41;;;21.21;100.00
28665;BME280;15850;47.524;7.814;2022-08-02T06:52:58;97940.75;;;21.18;100.00
28665;BME280;15850;47.524;7.814;2022-08-02T06:55:23;97940.41;;;21.16;100.00
28665;BME280;15850;47.524;7.814;2022-08-02T06:57:49;97949.03;;;21.25;100.00
28665;BME280;15850;47.524;7.814;2022-08-02T07:00:14;97971.97;;;21.29;100.00
28665;BME280;15850;47.524;7.814;2022-08-02T07:02:40;97932.56;;;20.82;100.00
28665;BME280;15850;47.524;7.814;2022-08-02T07:05:07;97972.00;;;21.11;100.00
28665;BME280;15850;47.524;7.814;2022-08-02T07:07:34;97968.81;;;21.24;100.00
28665;BME280;15850;47.524;7.814;2022-08-02T07:10:00;97979.53;;;21.07;100.00
28665;BME280;15850;47.524;7.814;2022-08-02T07:12:26;97967.69;;;21.07;100.00
28665;BME280;15850;47.524;7.814;2022-08-02T07:14:52;97914.00;;;20.90;100.00
28665;BME280;15850;47.524;7.814;2022-08-02T07:17:17;97955.41;;;21.15;100.00
28665;BME280;15850;47.524;7.814;2022-08-02T07:19:43;97956.19;;;21.23;100.00
28665;BME280;15850;47.524;7.814;2022-08-02T07:22:09;97978.22;;;21.48;100.00
28665;BME280;15850;47.524;7.814;2022-08-02T07:24:36;97981.41;;;21.46;100.00
28665;BME280;15850;47.524;7.814;2022-08-02T07:27:01;97975.47;;;21.44;100.00
28665;BME280;15850;47.524;7.814;2022-08-02T07:29:27;97980.56;;;21.56;100.00
28665;BME280;15850;47.524;7.814;2022-08-02T07:31:52;97930.59;;;20.86;100.00
28665;BME280;15850;47.524;7.814;2022-08-02T07:34:18;97977.50;;;21.37;100.00
28665;BME280;15850;47.524;7.814;2022-08-02T07:36:43;97970.72;;;21.45;100.00
28665;BME280;15850;47.524;7.814;2022-08-02T07:39:09;97932.50;;;21.11;100.00
28665;BME280;15850;47.524;7.814;2022-08-02T07:41:36;97939.59;;;21.16;100.00
28665;BME280;15850;47.524;7.814;2022-08-02T07:44:01;97915.94;;;21.04;100.00
28665;BME280;15850;47.524;7.814;2022-08-02T07:46:27;97972.97;;;21.68;100.00
28665;BME280;15850;47.524;7.814;2022-08-02T07:48:52;97959.88;;;21.75;100.00
28665;BME280;15850;47.524;7.814;2022-08-02T07:51:18;97922.16;;;21.29;100.00
28665;BME280;15850;47.524;7.814;2022-08-02T07:53:43;97875.88;;;21.33;100.00
28665;BME280;15850;47.524;7.814;2022-08-02T07:56:09;97951.44;;;21.97;100.00
28665;BME280;15850;47.524;7.814;2022-08-02T07:58:36;97884.69;;;21.80;100.00
28665;BME280;15850;47.524;7.814;2022-08-02T08:01:01;97965.16;;;22.18;100.00
28665;BME280;15850;47.524;7.814;2022-08-02T08:03:27;97957.28;;;22.17;100.00
28665;BME280;15850;47.524;7.814;2022-08-02T08:05:53;97884.47;;;21.57;100.00
28665;BME280;15850;47.524;7.814;2022-08-02T08:08:18;97928.94;;;21.88;100.00
28665;BME280;15850;47.524;7.814;2022-08-02T08:10:44;97905.16;;;21.94;100.00
28665;BME280;15850;47.524;7.814;2022-08-02T08:13:09;97959.47;;;22.40;100.00
28665;BME280;15850;47.524;7.814;2022-08-02T08:15:36;97950.78;;;22.34;100.00
28665;BME280;15850;47.524;7.814;2022-08-02T08:18:02;97852.28;;;21.77;100.00
28665;BME280;15850;47.524;7.814;2022-08-02T08:20:28;97959.69;;;22.60;100.00
28665;BME280;15850;47.524;7.814;2022-08-02T08:22:53;97962.00;;;22.65;100.00
28665;BME280;15850;47.524;7.814;2022-08-02T08:25:19;97964.63;;;22.38;100.00
28665;BME280;15850;47.524;7.814;2022-08-02T08:27:48;97958.91;;;22.59;100.00
28665;BME280;15850;47.524;7.814;2022-08-02T08:30:13;97967.78;;;22.81;100.00
28665;BME280;15850;47.524;7.814;2022-08-02T08:32:40;97959.22;;;22.68;100.00
28665;BME280;15850;47.524;7.814;2022-08-02T08:35:06;97729.47;;;21.53;100.00
28665;BME280;15850;47.524;7.814;2022-08-02T08:37:33;97925.50;;;23.08;100.00
28665;BME280;15850;47.524;7.814;2022-08-02T08:39:58;97956.38;;;23.44;100.00
28665;BME280;15850;47.524;7.814;2022-08-02T08:42:25;97952.22;;;23.90;100.00
28665;BME280;15850;47.524;7.814;2022-08-02T08:44:50;97951.91;;;24.11;100.00
28665;BME280;15850;47.524;7.814;2022-08-02T08:47:16;97849.28;;;23.74;100.00
28665;BME280;15850;47.524;7.814;2022-08-02T08:49:46;97945.28;;;24.96;96.24
28665;BME280;15850;47.524;7.814;2022-08-02T08:52:14;97838.25;;;24.41;94.59
28665;BME280;15850;47.524;7.814;2022-08-02T08:54:40;97832.47;;;24.08;94.28
28665;BME280;15850;47.524;7.814;2022-08-02T08:57:08;97901.09;;;24.34;94.64
28665;BME280;15850;47.524;7.814;2022-08-02T08:59:34;97698.94;;;23.72;92.97
28665;BME280;15850;47.524;7.814;2022-08-02T09:02:01;97924.00;;;24.66;92.38
28665;BME280;15850;47.524;7.814;2022-08-02T09:04:26;97914.97;;;25.01;92.05
28665;BME280;15850;47.524;7.814;2022-08-02T09:06:53;97883.13;;;25.02;92.68
28665;BME280;15850;47.524;7.814;2022-08-02T09:09:19;97920.75;;;25.50;91.95
28665;BME280;15850;47.524;7.814;2022-08-02T09:11:44;97915.34;;;25.80;89.85
28665;BME280;15850;47.524;7.814;2022-08-02T09:14:10;97922.84;;;26.32;90.60
28665;BME280;15850;47.524;7.814;2022-08-02T09:16:37;97884.94;;;26.34;87.35
28665;BME280;15850;47.524;7.814;2022-08-02T09:19:16;97869.94;;;26.61;84.77
28665;BME280;15850;47.524;7.814;2022-08-02T09:21:42;97925.91;;;26.37;86.64
28665;BME280;15850;47.524;7.814;2022-08-02T09:24:16;97901.00;;;26.14;86.74
28665;BME280;15850;47.524;7.814;2022-08-02T09:26:42;97899.34;;;25.84;88.42
28665;BME280;15850;47.524;7.814;2022-08-02T09:29:07;97920.50;;;25.97;87.68
28665;BME280;15850;47.524;7.814;2022-08-02T09:31:33;97927.63;;;25.82;88.50
28665;BME280;15850;47.524;7.814;2022-08-02T09:33:59;97920.50;;;25.81;89.03
28665;BME280;15850;47.524;7.814;2022-08-02T09:36:42;97919.28;;;25.26;90.50
28665;BME280;15850;47.524;7.814;2022-08-02T09:39:08;97922.69;;;24.94;92.96
28665;BME280;15850;47.524;7.814;2022-08-02T09:41:50;97855.22;;;23.99;95.40
28665;BME280;15850;47.524;7.814;2022-08-02T09:44:15;97915.00;;;24.34;96.49
28665;BME280;15850;47.524;7.814;2022-08-02T09:46:43;97907.44;;;24.35;96.35
28665;BME280;15850;47.524;7.814;2022-08-02T09:49:10;97918.47;;;24.42;97.79
28665;BME280;15850;47.524;7.814;2022-08-02T09:51:37;97916.16;;;24.60;97.11
28665;BME280;15850;47.524;7.814;2022-08-02T09:54:05;97913.69;;;24.86;93.80
28665;BME280;15850;47.524;7.814;2022-08-02T09:56:44;97911.19;;;24.72;93.54
28665;BME280;15850;47.524;7.814;2022-08-02T09:59:12;97898.06;;;24.92;94.04
28665;BME280;15850;47.524;7.814;2022-08-02T10:01:39;97904.22;;;25.03;91.35
28665;BME280;15850;47.524;7.814;2022-08-02T10:04:06;97914.28;;;24.97;90.45
28665;BME280;15850;47.524;7.814;2022-08-02T10:06:33;97909.78;;;25.03;91.36
28665;BME280;15850;47.524;7.814;2022-08-02T10:08:58;97907.34;;;24.85;90.72
28665;BME280;15850;47.524;7.814;2022-08-02T10:11:26;97868.00;;;24.44;93.19
28665;BME280;15850;47.524;7.814;2022-08-02T10:13:52;97859.03;;;24.32;93.14
28665;BME280;15850;47.524;7.814;2022-08-02T10:16:20;97648.50;;;22.75;93.82
28665;BME280;15850;47.524;7.814;2022-08-02T10:18:46;97693.13;;;23.39;93.28
28665;BME280;15850;47.524;7.814;2022-08-02T10:21:15;97890.03;;;24.54;93.62
28665;BME280;15850;47.524;7.814;2022-08-02T10:23:44;97881.56;;;24.61;92.98
28665;BME280;15850;47.524;7.814;2022-08-02T10:26:14;97893.56;;;24.98;91.77
28665;BME280;15850;47.524;7.814;2022-08-02T10:28:40;97684.06;;;23.58;91.35
28665;BME280;15850;47.524;7.814;2022-08-02T10:31:07;97894.72;;;25.01;91.99
28665;BME280;15850;47.524;7.814;2022-08-02T10:33:37;97743.44;;;23.91;90.36
28665;BME280;15850;47.524;7.814;2022-08-02T10:36:04;97746.94;;;23.72;92.06
28665;BME280;15850;47.524;7.814;2022-08-02T10:38:31;97891.41;;;24.86;92.73
28665;BME280;15850;47.524;7.814;2022-08-02T10:40:57;97768.13;;;24.29;89.45
28665;BME280;15850;47.524;7.814;2022-08-02T10:43:43;97879.22;;;24.80;90.18
28665;BME280;15850;47.524;7.814;2022-08-02T10:46:36;97756.88;;;23.93;90.62
28665;BME280;15850;47.524;7.814;2022-08-02T10:49:13;97817.72;;;24.54;89.44
28665;BME280;15850;47.524;7.814;2022-08-02T10:52:03;97826.41;;;24.96;89.10
28665;BME280;15850;47.524;7.814;2022-08-02T10:54:32;97876.59;;;25.13;85.93
28665;BME280;15850;47.524;7.814;2022-08-02T10:56:59;97880.13;;;25.17;86.06
28665;BME280;15850;47.524;7.814;2022-08-02T10:59:26;97870.88;;;25.00;85.88
28665;BME280;15850;47.524;7.814;2022-08-02T11:01:53;97874.34;;;25.44;84.95
28665;BME280;15850;47.524;7.814;2022-08-02T11:04:20;97833.97;;;25.16;85.95
28665;BME280;15850;47.524;7.814;2022-08-02T11:07:11;97867.63;;;25.41;86.18
28665;BME280;15850;47.524;7.814;2022-08-02T11:09:37;97870.34;;;25.45;82.13
28665;BME280;15850;47.524;7.814;2022-08-02T11:12:04;97866.38;;;25.26;82.30
28665;BME280;15850;47.524;7.814;2022-08-02T11:14:31;97869.19;;;25.42;79.61
28665;BME280;15850;47.524;7.814;2022-08-02T11:17:05;97650.44;;;24.16;80.25
28665;BME280;15850;47.524;7.814;2022-08-02T11:19:33;97790.44;;;25.05;81.71
28665;BME280;15850;47.524;7.814;2022-08-02T11:21:59;97856.53;;;25.58;78.79
28665;BME280;15850;47.524;7.814;2022-08-02T11:24:27;97854.84;;;25.80;79.79
28665;BME280;15850;47.524;7.814;2022-08-02T11:26:53;97849.00;;;25.91;82.77
28665;BME280;15850;47.524;7.814;2022-08-02T11:29:19;97808.03;;;25.55;80.35
28665;BME280;15850;47.524;7.814;2022-08-02T11:31:46;97724.91;;;25.21;80.86
28665;BME280;15850;47.524;7.814;2022-08-02T11:34:16;97825.97;;;26.19;79.36
28665;BME280;15850;47.524;7.814;2022-08-02T11:36:47;97809.59;;;26.05;75.52
28665;BME280;15850;47.524;7.814;2022-08-02T11:39:28;97823.06;;;26.39;73.93
28665;BME280;15850;47.524;7.814;2022-08-02T11:41:56;97805.97;;;26.37;74.82
28665;BME280;15850;47.524;7.814;2022-08-02T11:44:23;97800.44;;;26.21;75.64
28665;BME280;15850;47.524;7.814;2022-08-02T11:46:53;97742.50;;;25.83;74.95
28665;BME280;15850;47.524;7.814;2022-08-02T11:49:21;97833.09;;;26.53;76.17
28665;BME280;15850;47.524;7.814;2022-08-02T11:51:56;97832.97;;;26.57;73.78
28665;BME280;15850;47.524;7.814;2022-08-02T11:54:24;97781.75;;;26.34;73.96
28665;BME280;15850;47.524;7.814;2022-08-02T11:56:50;97825.59;;;26.92;74.95
28665;BME280;15850;47.524;7.814;2022-08-02T11:59:16;97828.53;;;27.01;73.03
28665;BME280;15850;47.524;7.814;2022-08-02T12:01:41;97828.03;;;26.77;72.60
28665;BME280;15850;47.524;7.814;2022-08-02T12:04:07;97832.72;;;26.51;73.20
28665;BME280;15850;47.524;7.814;2022-08-02T12:06:33;97823.28;;;26.45;74.83
28665;BME280;15850;47.524;7.814;2022-08-02T12:09:02;97826.78;;;26.78;74.89
28665;BME280;15850;47.524;7.814;2022-08-02T12:11:28;97821.09;;;26.82;72.66
28665;BME280;15850;47.524;7.814;2022-08-02T12:13:53;97816.78;;;26.93;70.38
28665;BME280;15850;47.524;7.814;2022-08-02T12:16:19;97817.13;;;26.96;70.01
28665;BME280;15850;47.524;7.814;2022-08-02T12:18:53;97793.41;;;26.75;69.10
28665;BME280;15850;47.524;7.814;2022-08-02T12:21:23;97811.88;;;26.98;67.07
28665;BME280;15850;47.524;7.814;2022-08-02T12:23:49;97710.66;;;26.68;67.72
28665;BME280;15850;47.524;7.814;2022-08-02T12:26:16;97794.72;;;27.50;59.17
28665;BME280;15850;47.524;7.814;2022-08-02T12:28:42;97810.84;;;27.59;56.26
28665;BME280;15850;47.524;7.814;2022-08-02T12:31:09;97771.47;;;27.66;57.34
28665;BME280;15850;47.524;7.814;2022-08-02T12:33:45;97608.19;;;26.43;59.75
28665;BME280;15850;47.524;7.814;2022-08-02T12:36:14;97617.44;;;26.40;59.08
28665;BME280;15850;47.524;7.814;2022-08-02T12:38:49;97787.25;;;27.60;57.57
28665;BME280;15850;47.524;7.814;2022-08-02T12:41:16;97742.56;;;27.34;56.29
28665;BME280;15850;47.524;7.814;2022-08-02T12:43:42;97793.50;;;27.64;58.67
28665;BME280;15850;47.524;7.814;2022-08-02T12:46:38;97790.53;;;28.06;58.29
28665;BME280;15850;47.524;7.814;2022-08-02T12:49:13;97773.59;;;28.22;57.05
28665;BME280;15850;47.524;7.814;2022-08-02T12:52:17;97778.03;;;28.32;55.45
28665;BME280;15850;47.524;7.814;2022-08-02T12:54:46;97710.16;;;28.19;55.33
28665;BME280;15850;47.524;7.814;2022-08-02T12:57:15;97732.31;;;28.14;55.20
28665;BME280;15850;47.524;7.814;2022-08-02T12:59:52;97726.81;;;28.23;57.91
28665;BME280;15850;47.524;7.814;2022-08-02T13:02:24;97755.34;;;28.18;53.57